createdAt,value
2022-10-31T00:01:27.790Z,23.60
2022-10-31T00:03:55.919Z,24.10
2022-10-31T00:06:24.664Z,23.15
2022-10-31T00:08:55.435Z,18.08
2022-10-31T00:11:25.127Z,20.23
2022-10-31T00:13:53.242Z,20.40
2022-10-31T00:16:23.345Z,20.88
2022-10-31T00:18:51.785Z,27.05
2022-10-31T00:21:20.015Z,23.55
2022-10-31T00:23:47.938Z,22.52
2022-10-31T00:26:15.788Z,20.48
2022-10-31T00:28:44.842Z,24.27
2022-10-31T00:31:13.876Z,20.52
2022-10-31T00:33:42.636Z,24.08
2022-10-31T00:36:17.496Z,26.63
2022-10-31T00:38:45.911Z,26.90
2022-10-31T00:41:14.526Z,22.83
2022-10-31T00:43:44.022Z,26.85
2022-10-31T00:46:11.924Z,22.13
2022-10-31T00:48:39.660Z,21.45
2022-10-31T00:51:07.836Z,22.15
2022-10-31T00:53:35.967Z,19.50
2022-10-31T00:56:04.603Z,24.88
2022-10-31T00:58:32.239Z,21.80
2022-10-31T01:01:01.342Z,21.85
2022-10-31T01:03:32.074Z,20.60
2022-10-31T01:06:01.369Z,30.25
2022-10-31T01:08:29.563Z,25.13
2022-10-31T01:11:02.046Z,25.40
2022-10-31T01:13:30.037Z,23.23
2022-10-31T01:15:58.801Z,28.15
2022-10-31T01:18:29.179Z,18.55
2022-10-31T01:21:05.252Z,25.58
2022-10-31T01:23:33.116Z,24.35
2022-10-31T01:26:07.021Z,21.98
2022-10-31T01:28:35.688Z,26.80
2022-10-31T01:31:04.930Z,26.95
2022-10-31T01:33:33.991Z,21.65
2022-10-31T01:36:01.865Z,25.83
2022-10-31T01:38:29.652Z,29.83
2022-10-31T01:40:57.224Z,26.90
2022-10-31T01:43:24.773Z,24.63
2022-10-31T01:45:55.820Z,24.10
2022-10-31T01:48:29.073Z,28.98
2022-10-31T01:50:58.008Z,27.98
2022-10-31T01:53:27.063Z,28.02
2022-10-31T01:55:55.218Z,25.58
2022-10-31T01:58:26.879Z,29.35
2022-10-31T02:00:59.584Z,27.75
2022-10-31T02:03:31.076Z,24.70
2022-10-31T02:06:00.735Z,27.40
2022-10-31T02:08:30.757Z,27.58
2022-10-31T02:11:00.038Z,26.60
2022-10-31T02:13:27.980Z,35.67
2022-10-31T02:15:58.455Z,30.95
2022-10-31T02:18:28.771Z,31.27
2022-10-31T02:21:06.355Z,30.02
2022-10-31T02:24:00.584Z,27.15
2022-10-31T02:26:48.276Z,35.22
2022-10-31T02:29:43.261Z,30.38
2022-10-31T02:32:19.483Z,31.05
2022-10-31T02:34:55.299Z,32.15
2022-10-31T02:37:28.131Z,31.35
2022-10-31T02:40:02.700Z,31.63
2022-10-31T02:42:52.890Z,32.35
2022-10-31T02:45:27.957Z,25.40
2022-10-31T02:48:02.556Z,30.27
2022-10-31T02:50:34.553Z,32.30
2022-10-31T02:53:04.780Z,37.00
2022-10-31T02:55:52.110Z,37.42
2022-10-31T02:58:24.634Z,39.25
2022-10-31T03:01:16.823Z,35.53
2022-10-31T03:04:08.806Z,34.65
2022-10-31T03:06:43.038Z,37.50
2022-10-31T03:09:19.561Z,38.05
2022-10-31T03:11:55.671Z,36.67
2022-10-31T03:14:28.202Z,35.25
2022-10-31T03:17:03.700Z,34.90
2022-10-31T03:19:36.239Z,37.63
2022-10-31T03:22:08.453Z,33.08
2022-10-31T03:24:39.069Z,38.38
2022-10-31T03:27:09.800Z,36.38
2022-10-31T03:29:39.511Z,38.03
2022-10-31T03:32:12.222Z,36.17
2022-10-31T03:34:44.560Z,35.67
2022-10-31T03:37:16.445Z,38.38
2022-10-31T03:39:46.651Z,38.92
2022-10-31T03:42:17.428Z,38.13
2022-10-31T03:44:49.344Z,39.50
2022-10-31T03:47:17.598Z,38.55
2022-10-31T03:49:46.671Z,37.40
2022-10-31T03:52:24.111Z,43.03
2022-10-31T03:54:56.675Z,39.97
2022-10-31T03:57:29.173Z,39.95
2022-10-31T04:00:02.173Z,35.97
2022-10-31T04:02:33.084Z,40.10
2022-10-31T04:05:03.909Z,39.78
2022-10-31T04:07:36.093Z,42.72
2022-10-31T04:10:09.362Z,40.47
2022-10-31T04:12:39.504Z,43.85
2022-10-31T04:15:25.234Z,39.22
2022-10-31T04:17:55.916Z,53.30
2022-10-31T04:20:34.260Z,44.95
2022-10-31T04:23:02.740Z,45.92
2022-10-31T04:25:30.609Z,41.55
2022-10-31T04:27:59.657Z,41.35
2022-10-31T04:30:27.466Z,46.70
2022-10-31T04:32:55.995Z,34.92
2022-10-31T04:35:23.554Z,35.58
2022-10-31T04:37:52.500Z,41.88
2022-10-31T04:40:20.761Z,40.00
2022-10-31T04:43:06.944Z,45.67
2022-10-31T04:45:34.633Z,40.10
2022-10-31T04:48:03.710Z,44.72
2022-10-31T04:50:34.800Z,42.50
2022-10-31T04:53:04.441Z,50.42
2022-10-31T04:55:39.341Z,49.50
2022-10-31T04:58:18.831Z,38.63
2022-10-31T05:00:46.629Z,47.78
2022-10-31T05:03:15.587Z,44.05
2022-10-31T05:05:43.580Z,44.30
2022-10-31T05:08:12.671Z,36.00
2022-10-31T05:10:40.293Z,47.00
2022-10-31T05:13:08.313Z,41.33
2022-10-31T05:16:05.215Z,45.95
2022-10-31T05:18:51.354Z,46.38
2022-10-31T05:21:37.339Z,45.63
2022-10-31T05:24:07.162Z,45.13
2022-10-31T05:26:35.830Z,42.55
2022-10-31T05:29:03.763Z,42.60
2022-10-31T05:31:31.415Z,46.13
2022-10-31T05:33:59.057Z,48.22
2022-10-31T05:36:45.204Z,43.90
2022-10-31T05:39:17.681Z,45.13
2022-10-31T05:41:49.008Z,44.53
2022-10-31T05:44:29.271Z,44.70
2022-10-31T05:47:10.343Z,53.95
2022-10-31T05:49:56.509Z,49.08
2022-10-31T05:52:42.864Z,42.67
2022-10-31T05:55:33.340Z,48.95
2022-10-31T05:58:13.207Z,49.03
2022-10-31T06:00:44.755Z,41.40
2022-10-31T06:03:13.524Z,47.60
2022-10-31T06:05:52.290Z,62.70
2022-10-31T06:08:24.328Z,42.85
2022-10-31T06:10:54.700Z,48.95
2022-10-31T06:13:32.085Z,43.13
2022-10-31T06:16:14.443Z,41.40
2022-10-31T06:18:42.112Z,42.42
2022-10-31T06:21:12.467Z,41.67
2022-10-31T06:23:42.583Z,42.15
2022-10-31T06:26:37.620Z,35.10
2022-10-31T06:29:05.214Z,39.70
2022-10-31T06:31:56.165Z,38.35
2022-10-31T06:34:23.884Z,39.17
2022-10-31T06:36:51.584Z,43.10
2022-10-31T06:39:22.686Z,28.48
2022-10-31T06:41:51.643Z,35.15
2022-10-31T06:44:22.061Z,30.70
2022-10-31T06:46:55.268Z,44.47
2022-10-31T06:49:43.152Z,38.08
2022-10-31T06:52:14.920Z,34.85
2022-10-31T06:54:42.817Z,33.05
2022-10-31T06:57:11.772Z,34.08
2022-10-31T06:59:40.437Z,36.10
2022-10-31T07:02:10.667Z,31.35
2022-10-31T07:04:39.796Z,25.77
2022-10-31T07:07:07.561Z,33.70
2022-10-31T07:09:36.496Z,30.08
2022-10-31T07:12:06.415Z,31.15
2022-10-31T07:14:39.595Z,23.25
2022-10-31T07:17:07.662Z,29.92
2022-10-31T07:19:42.001Z,25.85
2022-10-31T07:22:11.125Z,21.65
2022-10-31T07:24:40.730Z,24.10
2022-10-31T07:27:40.130Z,23.25
2022-10-31T07:30:14.465Z,21.52
2022-10-31T07:32:44.061Z,27.05
2022-10-31T07:35:16.733Z,22.52
2022-10-31T07:37:48.392Z,19.55
2022-10-31T07:40:18.140Z,23.40
2022-10-31T07:42:48.315Z,27.70
2022-10-31T07:45:40.893Z,25.10
2022-10-31T07:48:27.803Z,23.98
2022-10-31T07:51:14.210Z,29.77
2022-10-31T07:54:04.225Z,22.27
2022-10-31T07:56:33.283Z,24.25
2022-10-31T07:59:01.317Z,19.98
2022-10-31T08:01:30.500Z,22.65
2022-10-31T08:04:18.181Z,18.27
2022-10-31T08:07:04.539Z,28.05
2022-10-31T08:09:36.100Z,34.60
2022-10-31T08:12:10.790Z,21.15
2022-10-31T08:14:38.834Z,28.42
2022-10-31T08:17:08.370Z,25.65
2022-10-31T08:19:45.214Z,25.92
2022-10-31T08:22:15.666Z,28.13
2022-10-31T08:24:43.316Z,23.83
2022-10-31T08:27:13.031Z,25.88
2022-10-31T08:29:40.938Z,18.85
2022-10-31T08:32:10.290Z,30.58
2022-10-31T08:34:56.638Z,26.25
2022-10-31T08:37:43.494Z,24.73
2022-10-31T08:40:14.090Z,20.67
2022-10-31T08:42:41.916Z,16.65
2022-10-31T08:45:11.206Z,17.48
2022-10-31T08:47:40.359Z,21.08
2022-10-31T08:50:09.648Z,23.58
2022-10-31T08:53:03.029Z,22.63
2022-10-31T08:55:25.085Z,25.08
2022-10-31T08:58:20.676Z,24.92
2022-10-31T09:00:57.266Z,17.63
2022-10-31T09:03:27.750Z,16.25
2022-10-31T09:05:58.339Z,18.13
2022-10-31T09:08:26.166Z,21.05
2022-10-31T09:10:53.897Z,16.83
2022-10-31T09:13:41.607Z,20.08
2022-10-31T09:16:32.018Z,18.27
2022-10-31T09:19:01.513Z,14.25
2022-10-31T09:21:29.216Z,15.27
2022-10-31T09:23:59.936Z,17.17
2022-10-31T09:26:27.612Z,22.40
2022-10-31T09:28:58.675Z,21.33
2022-10-31T09:31:26.711Z,21.70
2022-10-31T09:33:55.245Z,27.08
2022-10-31T09:36:45.616Z,28.70
2022-10-31T09:39:18.776Z,26.52
2022-10-31T09:42:00.677Z,20.05
2022-10-31T09:44:39.658Z,28.17
2022-10-31T09:47:18.963Z,25.92
2022-10-31T09:50:14.274Z,29.13
2022-10-31T09:52:50.515Z,22.80
2022-10-31T09:55:22.403Z,23.67
2022-10-31T09:57:50.859Z,25.60
2022-10-31T10:00:22.790Z,29.60
2022-10-31T10:02:55.344Z,29.00
2022-10-31T10:05:29.779Z,32.83
2022-10-31T10:08:10.414Z,27.48
2022-10-31T10:11:17.776Z,32.00
2022-10-31T10:14:06.536Z,27.17
2022-10-31T10:16:46.767Z,31.65
2022-10-31T10:19:35.883Z,27.70
2022-10-31T10:22:11.496Z,27.40
2022-10-31T10:24:57.826Z,30.85
2022-10-31T10:27:43.735Z,29.00
2022-10-31T10:30:17.023Z,20.63
2022-10-31T10:32:51.821Z,23.60
2022-10-31T10:35:26.167Z,26.02
2022-10-31T10:38:00.848Z,31.83
2022-10-31T10:40:30.707Z,27.98
2022-10-31T10:43:21.030Z,34.67
2022-10-31T10:46:11.813Z,32.42
2022-10-31T10:48:44.866Z,27.38
2022-10-31T10:51:47.036Z,31.23
2022-10-31T10:54:21.049Z,26.48
2022-10-31T10:57:02.529Z,26.63
2022-10-31T10:59:31.399Z,30.55
2022-10-31T11:02:01.036Z,25.27
2022-10-31T11:04:32.253Z,23.05
2022-10-31T11:07:04.982Z,29.17
2022-10-31T11:09:33.237Z,25.42
2022-10-31T11:12:09.559Z,31.35
2022-10-31T11:14:45.609Z,23.33
2022-10-31T11:17:22.808Z,24.83
2022-10-31T11:20:01.243Z,25.33
2022-10-31T11:22:30.386Z,23.92
2022-10-31T11:24:58.282Z,28.38
2022-10-31T11:27:28.804Z,25.85
2022-10-31T11:30:06.961Z,29.00
2022-10-31T11:32:34.631Z,26.65
2022-10-31T11:35:05.512Z,28.80
2022-10-31T11:37:36.468Z,26.60
2022-10-31T11:40:07.639Z,26.98
2022-10-31T11:42:41.887Z,20.65
2022-10-31T11:45:17.332Z,24.40
2022-10-31T11:47:48.862Z,24.45
2022-10-31T11:50:24.055Z,19.50
2022-10-31T11:52:53.175Z,25.92
2022-10-31T11:55:33.540Z,18.80
2022-10-31T11:58:02.992Z,23.00
2022-10-31T12:00:32.411Z,18.90
2022-10-31T12:03:14.405Z,19.98
2022-10-31T12:05:45.718Z,22.80
2022-10-31T12:08:15.268Z,22.35
2022-10-31T12:10:54.024Z,24.15
2022-10-31T12:13:35.314Z,22.65
2022-10-31T12:16:11.137Z,23.48
2022-10-31T12:18:59.607Z,21.48
2022-10-31T12:21:43.938Z,21.50
2022-10-31T12:24:23.702Z,20.73
2022-10-31T12:27:02.224Z,20.00
2022-10-31T12:29:51.261Z,18.00
2022-10-31T12:32:31.609Z,21.60
2022-10-31T12:35:15.915Z,22.80
2022-10-31T12:37:54.974Z,21.20
2022-10-31T12:40:59.292Z,23.80
2022-10-31T12:43:37.549Z,27.83
2022-10-31T12:46:12.978Z,22.58
2022-10-31T12:48:57.248Z,21.60
2022-10-31T12:51:35.738Z,21.92
2022-10-31T12:54:20.366Z,19.98
2022-10-31T12:56:54.977Z,22.08
2022-10-31T12:59:29.492Z,22.95
2022-10-31T13:02:04.898Z,23.33
2022-10-31T13:04:42.524Z,21.48
2022-10-31T13:07:15.655Z,19.10
2022-10-31T13:09:50.754Z,19.90
2022-10-31T13:12:21.395Z,20.85
2022-10-31T13:14:52.562Z,18.00
2022-10-31T13:17:27.185Z,16.33
2022-10-31T13:20:04.684Z,16.75
2022-10-31T13:22:36.638Z,20.38
2022-10-31T13:25:12.066Z,19.60
2022-10-31T13:27:47.143Z,18.00
2022-10-31T13:30:17.662Z,16.23
2022-10-31T13:32:50.771Z,16.33
2022-10-31T13:35:23.788Z,19.23
2022-10-31T13:37:59.746Z,15.38
2022-10-31T13:40:39.208Z,13.18
2022-10-31T13:43:27.607Z,15.10
2022-10-31T13:58:00.627Z,13.18
2022-10-31T14:00:28.953Z,15.77
2022-10-31T14:02:59.644Z,14.15
2022-10-31T14:05:29.601Z,14.15
2022-10-31T14:07:59.525Z,13.40
2022-10-31T14:10:29.705Z,14.02
2022-10-31T14:13:09.383Z,14.65
2022-10-31T14:15:40.007Z,16.42
2022-10-31T14:18:19.693Z,14.27
2022-10-31T14:20:48.312Z,11.73
2022-10-31T14:23:44.824Z,15.05
2022-10-31T14:26:22.803Z,11.52
2022-10-31T14:28:52.785Z,16.42
2022-10-31T14:31:34.387Z,14.20
2022-10-31T14:34:03.228Z,13.70
2022-10-31T14:36:43.533Z,12.18
2022-10-31T14:39:19.579Z,15.80
2022-10-31T14:42:00.149Z,15.30
2022-10-31T14:44:57.281Z,12.60
2022-10-31T14:47:36.016Z,11.88
2022-10-31T14:50:23.799Z,18.02
2022-10-31T14:52:55.549Z,10.55
2022-10-31T14:55:24.665Z,13.40
2022-10-31T14:57:56.287Z,15.63
2022-10-31T15:00:26.496Z,14.82
2022-10-31T15:03:09.477Z,17.60
2022-10-31T15:05:43.213Z,14.55
2022-10-31T15:08:27.266Z,15.45
2022-10-31T15:10:54.885Z,15.90
2022-10-31T15:13:23.875Z,11.73
2022-10-31T15:15:56.484Z,11.43
2022-10-31T15:18:28.008Z,12.65
2022-10-31T15:20:57.138Z,13.40
2022-10-31T15:23:27.283Z,15.80
2022-10-31T15:26:01.673Z,16.95
2022-10-31T15:28:30.111Z,12.40
2022-10-31T15:31:01.167Z,14.20
2022-10-31T15:33:36.783Z,13.63
2022-10-31T15:36:06.713Z,12.68
2022-10-31T15:38:34.828Z,14.60
2022-10-31T15:41:05.065Z,15.27
2022-10-31T15:43:40.030Z,13.10
2022-10-31T15:46:11.465Z,16.63
2022-10-31T15:48:41.566Z,17.23
2022-10-31T15:51:09.439Z,15.02
2022-10-31T15:53:40.033Z,16.73
2022-10-31T15:56:10.627Z,15.50
2022-10-31T15:58:44.677Z,17.17
2022-10-31T16:01:24.468Z,12.43
2022-10-31T16:04:04.674Z,17.63
2022-10-31T16:06:33.598Z,15.18
2022-10-31T16:09:01.508Z,20.25
2022-10-31T16:11:35.993Z,21.15
2022-10-31T16:14:07.493Z,18.52
2022-10-31T16:16:44.724Z,18.27
2022-10-31T16:19:22.541Z,16.00
2022-10-31T16:21:54.236Z,14.05
2022-10-31T16:24:27.236Z,19.63
2022-10-31T16:27:04.630Z,17.70
2022-10-31T16:29:36.257Z,15.05
2022-10-31T16:32:07.626Z,17.27
2022-10-31T16:34:36.988Z,19.45
2022-10-31T16:37:04.800Z,14.82
2022-10-31T16:39:32.509Z,13.57
2022-10-31T16:42:00.163Z,17.00
2022-10-31T16:44:28.705Z,13.50
2022-10-31T16:47:14.078Z,16.90
2022-10-31T16:49:41.956Z,13.85
2022-10-31T16:52:10.943Z,15.65
2022-10-31T16:54:38.576Z,16.92
2022-10-31T16:57:07.564Z,13.98
2022-10-31T16:59:36.107Z,18.17
2022-10-31T17:02:05.562Z,16.67
2022-10-31T17:07:07.266Z,16.70
2022-10-31T17:09:35.057Z,17.60
2022-10-31T17:12:02.957Z,18.52
2022-10-31T17:14:30.758Z,14.07
2022-10-31T17:16:58.388Z,16.80
2022-10-31T17:19:26.089Z,23.60
2022-10-31T17:21:55.324Z,17.48
2022-10-31T17:24:23.147Z,16.42
2022-10-31T17:26:50.725Z,15.25
2022-10-31T17:29:18.452Z,18.30
2022-10-31T17:31:46.019Z,13.73
2022-10-31T17:34:13.670Z,17.20
2022-10-31T17:36:41.550Z,17.60
2022-10-31T17:39:10.731Z,15.32
2022-10-31T17:41:38.512Z,17.45
2022-10-31T17:44:06.139Z,20.60
2022-10-31T17:46:34.139Z,20.65
2022-10-31T17:49:01.847Z,23.55
2022-10-31T17:51:29.550Z,22.70
2022-10-31T17:53:57.194Z,24.45
2022-10-31T17:56:26.502Z,21.77
2022-10-31T17:58:54.248Z,21.42
2022-10-31T18:01:21.994Z,19.35
2022-10-31T18:03:49.764Z,20.98
2022-10-31T18:06:17.394Z,24.80
2022-10-31T18:08:45.538Z,17.50
2022-10-31T18:11:16.840Z,21.90
2022-10-31T18:13:46.021Z,17.80
2022-10-31T18:16:15.989Z,21.15
2022-10-31T18:18:43.876Z,21.30
2022-10-31T18:21:11.634Z,20.10
2022-10-31T18:23:39.496Z,23.88
2022-10-31T18:26:07.137Z,24.48
2022-10-31T18:28:34.810Z,25.20
2022-10-31T18:31:03.958Z,22.17
2022-10-31T18:33:31.619Z,21.08
2022-10-31T18:36:05.803Z,22.67
2022-10-31T18:38:33.622Z,25.65
2022-10-31T18:41:01.262Z,21.85
2022-10-31T18:43:28.919Z,16.95
2022-10-31T18:45:58.206Z,19.10
2022-10-31T18:48:28.410Z,19.60
2022-10-31T18:50:58.102Z,19.67
2022-10-31T18:53:26.233Z,18.30
2022-10-31T18:55:54.028Z,21.05
2022-10-31T18:58:21.816Z,19.98
2022-10-31T19:00:49.596Z,22.20
2022-10-31T19:03:21.948Z,18.10
2022-10-31T19:05:55.531Z,20.95
2022-10-31T19:08:23.655Z,20.70
2022-10-31T19:10:54.539Z,18.92
2022-10-31T19:13:22.506Z,20.05
2022-10-31T19:15:50.265Z,28.17
2022-10-31T19:18:18.073Z,19.67
2022-10-31T19:20:46.029Z,18.02
2022-10-31T19:23:15.499Z,21.33
2022-10-31T19:28:15.640Z,20.25
2022-10-31T19:30:43.244Z,18.83
2022-10-31T19:33:10.930Z,18.95
2022-10-31T19:35:38.646Z,21.85
2022-10-31T19:38:06.611Z,17.90
2022-10-31T19:40:38.946Z,21.23
2022-10-31T19:43:06.950Z,22.17
2022-10-31T19:45:34.814Z,21.35
2022-10-31T19:48:02.829Z,19.00
2022-10-31T19:50:30.983Z,19.45
2022-10-31T19:52:58.867Z,25.88
2022-10-31T19:55:26.435Z,23.38
2022-10-31T19:58:01.888Z,22.15
2022-10-31T20:00:29.976Z,22.30
2022-10-31T20:03:22.684Z,20.13
2022-10-31T20:05:54.268Z,24.08
2022-10-31T20:08:23.017Z,22.85
2022-10-31T20:10:59.347Z,18.95
2022-10-31T20:13:28.929Z,18.13
2022-10-31T20:16:00.103Z,21.77
2022-10-31T20:18:28.173Z,18.38
2022-10-31T20:21:04.711Z,18.83
2022-10-31T20:23:33.637Z,20.92
2022-10-31T20:26:01.835Z,19.23
2022-10-31T20:28:34.048Z,21.67
2022-10-31T20:31:02.602Z,25.88
2022-10-31T20:33:30.213Z,20.25
2022-10-31T20:36:05.867Z,24.50
2022-10-31T20:38:34.312Z,23.40
2022-10-31T20:41:02.463Z,26.45
2022-10-31T20:43:32.045Z,19.35
2022-10-31T20:46:05.900Z,21.70
2022-10-31T20:48:33.734Z,26.40
2022-10-31T20:51:03.276Z,24.63
2022-10-31T20:53:31.845Z,24.60
2022-10-31T20:56:07.062Z,26.70
2022-10-31T20:58:37.683Z,25.52
2022-10-31T21:01:06.319Z,27.95
2022-10-31T21:03:36.484Z,23.58
2022-10-31T21:06:05.873Z,25.25
2022-10-31T21:08:34.808Z,25.30
2022-10-31T21:11:07.217Z,28.88
2022-10-31T21:13:40.710Z,27.65
2022-10-31T21:16:10.862Z,28.52
2022-10-31T21:18:39.727Z,23.80
2022-10-31T21:21:09.644Z,29.35
2022-10-31T21:23:37.451Z,28.73
2022-10-31T21:26:07.037Z,24.88
2022-10-31T21:28:35.278Z,28.00
2022-10-31T21:31:09.957Z,29.15
2022-10-31T21:33:41.350Z,30.00
2022-10-31T21:36:12.624Z,29.08
2022-10-31T21:38:40.705Z,20.83
2022-10-31T21:41:09.718Z,24.48
2022-10-31T21:43:42.260Z,24.25
2022-10-31T21:46:21.312Z,26.75
2022-10-31T21:48:51.375Z,23.55
2022-10-31T21:51:28.441Z,22.50
2022-10-31T21:54:16.312Z,23.58
2022-10-31T21:56:44.549Z,30.65
2022-10-31T21:59:14.953Z,26.90
2022-10-31T22:01:44.042Z,27.98
2022-10-31T22:04:12.124Z,29.25
2022-10-31T22:06:39.810Z,29.73
2022-10-31T22:09:09.101Z,26.42
2022-10-31T22:11:36.856Z,23.85
2022-10-31T22:14:05.120Z,26.90
2022-10-31T22:16:35.864Z,27.58
2022-10-31T22:19:06.908Z,27.77
2022-10-31T22:21:38.353Z,23.90
2022-10-31T22:24:07.897Z,25.80
2022-10-31T22:26:36.553Z,30.70
2022-10-31T22:29:07.013Z,32.72
2022-10-31T22:31:43.834Z,31.00
2022-10-31T22:34:18.940Z,26.48
2022-10-31T22:36:46.638Z,27.85
2022-10-31T22:39:14.382Z,24.42
2022-10-31T22:41:42.082Z,24.73
2022-10-31T22:44:09.969Z,28.25
2022-10-31T22:46:39.968Z,31.75
2022-10-31T22:49:10.009Z,28.58
2022-10-31T22:51:40.514Z,29.35
2022-10-31T22:54:10.703Z,30.45
2022-10-31T22:56:38.996Z,25.13
2022-10-31T22:59:07.198Z,33.42
2022-10-31T23:01:35.626Z,30.98
2022-10-31T23:04:03.529Z,32.10
2022-10-31T23:06:33.036Z,29.50
2022-10-31T23:09:04.231Z,23.40
2022-10-31T23:11:33.955Z,26.58
2022-10-31T23:14:14.055Z,29.35
2022-10-31T23:16:44.318Z,28.83
2022-10-31T23:19:14.372Z,36.88
2022-10-31T23:21:56.419Z,26.42
2022-10-31T23:24:29.442Z,30.90
2022-10-31T23:27:09.612Z,30.13
2022-10-31T23:29:43.308Z,28.65
2022-10-31T23:32:16.312Z,28.70
2022-10-31T23:34:44.477Z,35.80
2022-10-31T23:37:12.250Z,35.03
2022-10-31T23:39:41.430Z,28.52
2022-10-31T23:42:09.395Z,30.90
2022-10-31T23:44:37.485Z,31.65
2022-10-31T23:47:05.627Z,31.73
2022-10-31T23:49:34.678Z,28.67
2022-10-31T23:52:03.526Z,31.80
2022-10-31T23:54:31.329Z,33.45
2022-10-31T23:57:00.519Z,25.05
2022-10-31T23:59:29.090Z,28.70
